Atlantic - Newfoundland: Past 24 Hour Conditions

 

Banquereau - 44139

12:00 PM ADT 29 August 2014Buoy position: 44.27N 57.08W
This table is a summary of hourly weather conditions for the past 24 hours.
Date / Time
(ADT)
Wind(knots) Wave height(m) Wave period(s) Pressure(kPa) Air tempC) Water tempC)
29 August 2014
12:00 NNE 16 gust 19 2.5 15.0 100.4 18 20
11:00 NE 8 gust 14 2.0 17.0 100.3 18 20
10:00 ENE 4 gust 8 1.7 12.0 100.2 18 20
9:00 NW 6 gust 8 1.9 12.0 100.1 19 20
8:00 WNW 8 gust 10 1.8 13.0 100.0 19 20
7:00 NW 8 gust 12 1.8 13.0 99.9 19 20
6:00 NW 12 gust 16 1.7 13.0 99.8 20 20
5:00 NW 14 gust 18 1.7 14.0 99.8 20 20
4:00 NNW 14 gust 16 1.7 14.0 99.7 20 20
3:00 NNW 12 gust 16 1.7 14.0 99.7 19 20
2:00 NNW 14 gust 18 1.7 14.0 99.7 19 20
1:00 N 14 gust 18 1.7 14.0 99.7 20 20
0:00 N 10 gust 12 1.6 14.0 99.8 20 20
28 August 2014
23:00 NNE 10 gust 12 1.7 14.0 99.8 20 20
22:00 ENE 12 gust 14 1.8 14.0 99.9 20 20
21:00 ENE 12 gust 14 1.9 14.0 100.0 20 20
20:00 ENE 10 gust 12 1.8 14.0 100.2 20 20
19:00 E 12 gust 16 1.9 15.0 100.1 20 20
18:00 E 16 gust 19 1.9 14.0 100.2 19 20
17:00 E 10 gust 14 1.9 15.0 100.4 20 20
16:00 NNE 4 gust 6 1.9 15.0 100.5 20 20
15:00 NNE 2 gust 4 1.8 12.0 100.6 21 20
14:00 S 2 gust 4 1.7 8.0 100.7 21 20
13:00 S 6 gust 8 1.7 7.0 100.8 21 20
12:00 SSW 10 gust 12 1.6 7.0 100.9 21 20
 
Map of Atlantic - Newfoundland marine weather areas Southwestern Grand Banks - 44138 Banquereau - 44139 Tail of the Bank - 44140 Nickerson Bank - 44251 Northeast Burgeo Bank - 44255 Blanc-Sablon Airport Cap Whittle Chevery Natashquan Airport Heath Point Miscou Island Grand Étang Ingonish Beach North Mountain St.Paul Island J.A. Douglas McCurdy Sydney Airport Charlottetown Airport East Point North Cape Argentia Bonavista Burgeo Cape Race Corner Brook Daniel's Harbour Englee Ferolle Point La Scie Port aux Basques Rocky Harbour Sagona Island St. Anthony Airport St. John's Int'l Airport St. Lawrence Stephenville Airport Twillingate Winterland Wreckhouse Cartwright Airport Mary's Harbour Grates Cove Pool's Island Marticot Island Long Pond Îles de la Madeleine Airport
Legend: buoyBuoy land stationLand Station